createdAt,value
2022-10-30T00:01:29.539Z,99494.59
2022-10-30T00:03:59.676Z,99500.91
2022-10-30T00:06:28.211Z,99487.72
2022-10-30T00:08:59.821Z,99498.91
2022-10-30T00:11:29.730Z,99497.53
2022-10-30T00:14:09.621Z,99487.03
2022-10-30T00:16:40.359Z,99484.75
2022-10-30T00:19:08.884Z,99477.72
2022-10-30T00:21:37.378Z,99477.59
2022-10-30T00:24:08.722Z,99471.19
2022-10-30T00:26:37.282Z,99482.78
2022-10-30T00:29:06.005Z,99484.31
2022-10-30T00:31:35.006Z,99462.00
2022-10-30T00:34:05.151Z,99466.22
2022-10-30T00:36:33.540Z,99482.69
2022-10-30T00:39:02.136Z,99489.75
2022-10-30T00:41:30.774Z,99489.69
2022-10-30T00:43:59.040Z,99494.28
2022-10-30T00:46:31.503Z,99497.22
2022-10-30T00:49:12.209Z,99491.25
2022-10-30T00:51:43.842Z,99491.19
2022-10-30T00:54:13.756Z,99484.41
2022-10-30T00:56:42.432Z,99500.53
2022-10-30T00:59:15.273Z,99504.63
2022-10-30T01:01:46.609Z,99483.53
2022-10-30T01:04:18.595Z,99485.44
2022-10-30T01:06:52.233Z,99483.53
2022-10-30T01:09:21.644Z,99491.25
2022-10-30T01:11:50.448Z,99500.16
2022-10-30T01:14:21.916Z,99485.03
2022-10-30T01:17:03.689Z,99500.16
2022-10-30T01:19:43.923Z,99494.53
2022-10-30T01:22:28.816Z,99498.25
2022-10-30T01:25:13.173Z,99500.09
2022-10-30T01:27:54.938Z,99504.03
2022-10-30T01:30:37.388Z,99496.97
2022-10-30T01:33:25.788Z,99502.81
2022-10-30T01:36:04.275Z,99494.59
2022-10-30T01:38:42.038Z,99490.97
2022-10-30T01:41:10.854Z,99493.19
2022-10-30T01:43:41.763Z,99492.63
2022-10-30T01:46:41.733Z,99488.66
2022-10-30T01:49:40.352Z,99491.56
2022-10-30T01:52:18.788Z,99493.31
2022-10-30T01:54:53.846Z,99481.34
2022-10-30T01:57:35.739Z,99483.03
2022-10-30T02:00:07.343Z,99483.16
2022-10-30T02:02:36.422Z,99481.22
2022-10-30T02:05:07.759Z,99474.38
2022-10-30T02:07:38.459Z,99481.94
2022-10-30T02:10:10.802Z,99488.19
2022-10-30T02:12:39.519Z,99488.00
2022-10-30T02:15:09.201Z,99483.75
2022-10-30T02:17:37.960Z,99481.19
2022-10-30T02:20:08.295Z,99483.00
2022-10-30T02:22:40.084Z,99499.47
2022-10-30T02:25:10.684Z,99487.88
2022-10-30T02:27:39.548Z,99494.59
2022-10-30T02:30:11.115Z,99505.44
2022-10-30T02:32:39.921Z,99514.38
2022-10-30T02:35:09.760Z,99502.16
2022-10-30T02:37:39.837Z,99510.13
2022-10-30T02:40:09.567Z,99503.44
2022-10-30T02:42:38.087Z,99497.38
2022-10-30T02:45:07.083Z,99502.47
2022-10-30T02:47:37.037Z,99506.81
2022-10-30T02:50:05.911Z,99509.81
2022-10-30T02:52:34.716Z,99506.94
2022-10-30T02:55:08.014Z,99509.38
2022-10-30T02:57:36.205Z,99498.53
2022-10-30T03:00:05.247Z,99491.78
2022-10-30T03:02:33.724Z,99496.19
2022-10-30T03:05:02.822Z,99495.22
2022-10-30T03:07:31.224Z,99494.25
2022-10-30T03:09:59.678Z,99497.25
2022-10-30T03:12:29.922Z,99498.75
2022-10-30T03:14:59.915Z,99487.66
2022-10-30T03:17:28.642Z,99497.03
2022-10-30T03:19:57.655Z,99499.66
2022-10-30T03:22:26.687Z,99496.78
2022-10-30T03:24:55.280Z,99491.13
2022-10-30T03:27:23.695Z,99491.88
2022-10-30T03:29:55.168Z,99495.84
2022-10-30T03:34:52.122Z,99498.75
2022-10-30T03:37:20.330Z,99508.63
2022-10-30T03:39:49.879Z,99500.44
2022-10-30T03:42:18.294Z,99505.97
2022-10-30T03:44:47.742Z,99510.00
2022-10-30T03:47:17.739Z,99499.25
2022-10-30T03:49:46.435Z,99500.16
2022-10-30T03:52:16.356Z,99501.78
2022-10-30T03:54:44.827Z,99498.47
2022-10-30T03:57:13.281Z,99496.44
2022-10-30T03:59:41.720Z,99486.66
2022-10-30T04:02:10.334Z,99487.38
2022-10-30T04:04:41.724Z,99489.44
2022-10-30T04:07:10.846Z,99482.38
2022-10-30T04:09:41.738Z,99484.41
2022-10-30T04:12:13.699Z,99481.63
2022-10-30T04:14:41.951Z,99481.44
2022-10-30T04:19:45.644Z,99478.06
2022-10-30T04:22:14.031Z,99471.38
2022-10-30T04:24:42.960Z,99473.47
2022-10-30T04:27:11.884Z,99461.13
2022-10-30T04:29:39.974Z,99463.56
2022-10-30T04:32:10.083Z,99469.13
2022-10-30T04:34:39.721Z,99455.50
2022-10-30T04:37:09.808Z,99454.97
2022-10-30T04:39:42.299Z,99451.38
2022-10-30T04:42:14.309Z,99451.59
2022-10-30T04:44:42.768Z,99446.78
2022-10-30T04:47:11.209Z,99447.41
2022-10-30T04:49:41.950Z,99447.63
2022-10-30T04:52:12.194Z,99450.63
2022-10-30T04:54:43.454Z,99449.56
2022-10-30T04:57:15.112Z,99443.94
2022-10-30T04:59:43.646Z,99444.59
2022-10-30T05:02:12.396Z,99446.28
2022-10-30T05:04:40.971Z,99452.81
2022-10-30T05:07:09.373Z,99452.56
2022-10-30T05:09:39.363Z,99457.44
2022-10-30T05:12:08.764Z,99451.06
2022-10-30T05:14:39.882Z,99449.28
2022-10-30T05:17:10.417Z,99449.28
2022-10-30T05:19:39.010Z,99449.03
2022-10-30T05:22:07.642Z,99451.38
2022-10-30T05:24:36.857Z,99448.16
2022-10-30T05:27:09.423Z,99447.31
2022-10-30T05:29:39.756Z,99454.50
2022-10-30T05:32:08.176Z,99444.84
2022-10-30T05:34:36.646Z,99445.97
2022-10-30T05:37:05.646Z,99448.66
2022-10-30T05:39:35.444Z,99448.00
2022-10-30T05:42:03.770Z,99446.66
2022-10-30T05:44:55.018Z,99439.41
2022-10-30T05:47:23.610Z,99438.91
2022-10-30T05:49:54.860Z,99440.75
2022-10-30T05:52:23.506Z,99445.31
2022-10-30T05:54:51.867Z,99444.38
2022-10-30T05:57:20.024Z,99449.91
2022-10-30T05:59:51.693Z,99448.84
2022-10-30T06:02:20.383Z,99448.63
2022-10-30T06:04:49.324Z,99453.84
2022-10-30T06:07:17.890Z,99444.47
2022-10-30T06:09:46.594Z,99446.78
2022-10-30T06:12:16.157Z,99457.44
2022-10-30T06:14:45.190Z,99463.72
2022-10-30T06:17:15.362Z,99469.44
2022-10-30T06:19:43.787Z,99473.06
2022-10-30T06:22:11.912Z,99466.06
2022-10-30T06:24:40.094Z,99482.63
2022-10-30T06:27:09.455Z,99482.00
2022-10-30T06:29:38.706Z,99483.81
2022-10-30T06:32:07.580Z,99491.97
2022-10-30T06:34:38.636Z,99495.09
2022-10-30T06:37:07.206Z,99496.44
2022-10-30T06:39:35.699Z,99495.31
2022-10-30T06:42:03.968Z,99497.41
2022-10-30T06:44:32.400Z,99503.34
2022-10-30T06:47:00.682Z,99496.56
2022-10-30T06:49:29.410Z,99493.50
2022-10-30T06:52:01.881Z,99499.88
2022-10-30T06:54:31.244Z,99498.50
2022-10-30T06:56:59.968Z,99493.50
2022-10-30T06:59:28.458Z,99488.75
2022-10-30T07:02:00.364Z,99492.13
2022-10-30T07:04:30.138Z,99493.31
2022-10-30T07:06:59.965Z,99494.81
2022-10-30T07:09:28.404Z,99500.44
2022-10-30T07:12:06.593Z,99498.09
2022-10-30T07:14:36.528Z,99496.09
2022-10-30T07:17:04.918Z,99493.94
2022-10-30T07:19:33.627Z,99495.41
2022-10-30T07:22:04.590Z,99503.41
2022-10-30T07:24:33.006Z,99508.19
2022-10-30T07:27:01.420Z,99513.66
2022-10-30T07:29:29.917Z,99513.22
2022-10-30T07:32:03.836Z,99512.81
2022-10-30T07:34:33.183Z,99507.13
2022-10-30T07:37:05.131Z,99499.81
2022-10-30T07:39:34.387Z,99504.44
2022-10-30T07:42:02.944Z,99506.72
2022-10-30T07:44:31.745Z,99504.69
2022-10-30T07:47:00.555Z,99510.00
2022-10-30T07:49:30.188Z,99500.75
2022-10-30T07:51:59.503Z,99500.44
2022-10-30T07:54:29.775Z,99503.91
2022-10-30T07:56:59.212Z,99496.53
2022-10-30T07:59:28.283Z,99499.69
2022-10-30T08:01:58.524Z,99489.84
2022-10-30T08:04:27.404Z,99496.34
2022-10-30T08:06:56.952Z,99488.03
2022-10-30T08:09:27.731Z,99494.63
2022-10-30T08:12:07.375Z,99490.69
2022-10-30T08:14:35.927Z,99500.53
2022-10-30T08:17:11.191Z,99494.03
2022-10-30T08:19:41.338Z,99498.53
2022-10-30T08:22:12.031Z,99506.81
2022-10-30T08:24:41.737Z,99503.88
2022-10-30T08:27:14.223Z,99496.66
2022-10-30T08:29:45.723Z,99500.53
2022-10-30T08:32:14.191Z,99490.78
2022-10-30T08:34:42.722Z,99500.72
2022-10-30T08:37:12.174Z,99500.84
2022-10-30T08:39:40.768Z,99500.22
2022-10-30T08:42:12.326Z,99489.94
2022-10-30T08:44:42.329Z,99501.47
2022-10-30T08:47:12.759Z,99493.13
2022-10-30T08:49:42.737Z,99489.94
2022-10-30T08:52:11.797Z,99495.31
2022-10-30T08:54:40.343Z,99485.69
2022-10-30T08:57:08.561Z,99484.63
2022-10-30T08:59:38.326Z,99481.47
2022-10-30T09:02:08.439Z,99468.78
2022-10-30T09:04:37.381Z,99459.53
2022-10-30T09:07:08.955Z,99466.09
2022-10-30T09:09:40.764Z,99460.50
2022-10-30T09:12:10.220Z,99452.25
2022-10-30T09:14:40.501Z,99464.72
2022-10-30T09:17:10.062Z,99453.31
2022-10-30T09:19:40.048Z,99449.38
2022-10-30T09:22:08.700Z,99453.94
2022-10-30T09:24:37.587Z,99456.34
2022-10-30T09:27:06.188Z,99450.63
2022-10-30T09:29:35.716Z,99453.03
2022-10-30T09:32:08.849Z,99444.34
2022-10-30T09:34:38.068Z,99442.84
2022-10-30T09:37:07.060Z,99443.03
2022-10-30T09:39:39.515Z,99440.25
2022-10-30T09:42:45.053Z,99441.31
2022-10-30T09:45:46.868Z,99442.28
2022-10-30T09:48:56.683Z,99438.00
2022-10-30T09:51:55.602Z,99429.16
2022-10-30T09:54:37.258Z,99424.19
2022-10-30T09:57:13.435Z,99438.81
2022-10-30T09:59:53.732Z,99435.97
2022-10-30T10:02:35.000Z,99435.44
2022-10-30T10:05:16.524Z,99434.53
2022-10-30T10:07:48.805Z,99425.25
2022-10-30T10:10:22.232Z,99422.41
2022-10-30T10:12:58.704Z,99418.47
2022-10-30T10:15:39.913Z,99412.34
2022-10-30T10:18:16.248Z,99415.13
2022-10-30T10:20:49.987Z,99408.38
2022-10-30T10:23:20.522Z,99407.47
2022-10-30T10:25:55.210Z,99402.25
2022-10-30T10:28:45.321Z,99402.13
2022-10-30T10:31:28.111Z,99402.34
2022-10-30T10:34:10.733Z,99392.88
2022-10-30T10:36:51.452Z,99398.19
2022-10-30T10:39:33.092Z,99394.13
2022-10-30T10:42:16.475Z,99390.41
2022-10-30T10:44:55.216Z,99392.97
2022-10-30T10:47:38.675Z,99380.28
2022-10-30T10:50:21.556Z,99376.50
2022-10-30T10:52:56.145Z,99376.88
2022-10-30T10:55:29.416Z,99376.00
2022-10-30T10:58:08.071Z,99372.81
2022-10-30T11:00:36.848Z,99370.94
2022-10-30T11:03:13.316Z,99367.34
2022-10-30T11:05:48.213Z,99362.66
2022-10-30T11:08:24.348Z,99361.81
2022-10-30T11:10:59.479Z,99371.03
2022-10-30T11:13:31.696Z,99368.47
2022-10-30T11:16:11.410Z,99366.03
2022-10-30T11:18:40.357Z,99366.41
2022-10-30T11:21:14.515Z,99363.13
2022-10-30T11:23:46.081Z,99360.25
2022-10-30T11:26:33.436Z,99361.06
2022-10-30T11:29:07.089Z,99357.63
2022-10-30T11:31:38.388Z,99354.50
2022-10-30T11:34:26.322Z,99348.56
2022-10-30T11:36:56.002Z,99335.72
2022-10-30T11:39:28.141Z,99332.56
2022-10-30T11:42:01.475Z,99336.44
2022-10-30T11:44:37.832Z,99323.28
2022-10-30T11:47:08.507Z,99322.19
2022-10-30T11:49:47.527Z,99320.94
2022-10-30T11:52:19.434Z,99317.91
2022-10-30T11:54:54.606Z,99318.13
2022-10-30T11:57:26.041Z,99326.06
2022-10-30T12:00:02.094Z,99315.25
2022-10-30T12:02:43.377Z,99310.81
2022-10-30T12:05:34.829Z,99311.03
2022-10-30T12:08:21.191Z,99315.91
2022-10-30T12:11:00.055Z,99304.94
2022-10-30T12:13:33.549Z,99297.16
2022-10-30T12:16:17.625Z,99306.81
2022-10-30T12:18:58.493Z,99312.84
2022-10-30T12:21:28.674Z,99303.72
2022-10-30T12:24:01.511Z,99292.88
2022-10-30T12:26:34.655Z,99290.53
2022-10-30T12:29:10.468Z,99296.06
2022-10-30T12:31:46.667Z,99295.13
2022-10-30T12:34:27.616Z,99292.03
2022-10-30T12:37:05.437Z,99294.66
2022-10-30T12:39:47.745Z,99286.78
2022-10-30T12:42:23.227Z,99287.56
2022-10-30T12:44:57.223Z,99281.94
2022-10-30T12:47:31.749Z,99280.28
2022-10-30T12:52:43.785Z,99286.34
2022-10-30T12:55:21.680Z,99281.19
2022-10-30T12:58:03.272Z,99286.25
2022-10-30T13:00:38.362Z,99278.41
2022-10-30T13:03:22.153Z,99276.72
2022-10-30T13:05:55.613Z,99276.88
2022-10-30T13:08:31.110Z,99276.63
2022-10-30T13:11:05.827Z,99267.06
2022-10-30T13:13:39.378Z,99264.88
2022-10-30T13:16:15.482Z,99270.31
2022-10-30T13:18:43.745Z,99264.84
2022-10-30T13:21:26.816Z,99268.25
2022-10-30T13:24:01.637Z,99266.84
2022-10-30T13:26:38.564Z,99261.78
2022-10-30T13:29:20.338Z,99266.97
2022-10-30T13:32:03.714Z,99263.28
2022-10-30T13:34:46.185Z,99262.94
2022-10-30T13:37:20.590Z,99257.72
2022-10-30T13:40:02.280Z,99258.63
2022-10-30T13:42:47.811Z,99261.81
2022-10-30T13:45:42.131Z,99242.94
2022-10-30T13:48:15.064Z,99247.94
2022-10-30T13:51:04.095Z,99250.50
2022-10-30T13:53:38.287Z,99243.91
2022-10-30T13:56:09.005Z,99248.38
2022-10-30T13:58:44.148Z,99251.59
2022-10-30T14:01:21.911Z,99246.53
2022-10-30T14:04:02.641Z,99237.16
2022-10-30T14:06:44.489Z,99244.19
2022-10-30T14:09:21.756Z,99242.34
2022-10-30T14:11:50.381Z,99236.59
2022-10-30T14:14:31.823Z,99248.16
2022-10-30T14:17:15.013Z,99243.56
2022-10-30T14:20:20.767Z,99250.59
2022-10-30T14:23:14.532Z,99248.53
2022-10-30T14:25:44.188Z,99251.03
2022-10-30T14:28:21.881Z,99249.84
2022-10-30T14:31:04.022Z,99248.06
2022-10-30T14:33:48.610Z,99250.38
2022-10-30T14:36:21.785Z,99250.16
2022-10-30T14:39:25.521Z,99262.09
2022-10-30T14:42:21.840Z,99257.59
2022-10-30T14:45:13.890Z,99250.56
2022-10-30T14:47:59.156Z,99262.56
2022-10-30T14:50:48.232Z,99255.25
2022-10-30T14:53:31.853Z,99261.50
2022-10-30T14:56:08.195Z,99256.00
2022-10-30T14:58:39.219Z,99256.66
2022-10-30T15:01:37.876Z,99256.97
2022-10-30T15:04:18.894Z,99256.25
2022-10-30T15:07:05.139Z,99259.22
2022-10-30T15:09:46.396Z,99255.53
2022-10-30T15:12:46.945Z,99259.41
2022-10-30T15:15:18.793Z,99261.63
2022-10-30T15:17:50.400Z,99261.81
2022-10-30T15:20:21.884Z,99257.75
2022-10-30T15:22:56.403Z,99257.75
2022-10-30T15:25:36.058Z,99263.44
2022-10-30T15:28:05.137Z,99262.44
2022-10-30T15:30:33.601Z,99266.31
2022-10-30T15:33:02.557Z,99261.91
2022-10-30T15:35:36.248Z,99269.97
2022-10-30T15:38:07.838Z,99273.34
2022-10-30T15:40:38.388Z,99267.59
2022-10-30T15:43:09.010Z,99278.66
2022-10-30T15:45:39.966Z,99281.28
2022-10-30T15:48:13.859Z,99278.78
2022-10-30T15:50:51.112Z,99279.75
2022-10-30T15:53:25.698Z,99280.13
2022-10-30T15:55:59.079Z,99280.84
2022-10-30T15:58:27.719Z,99284.00
2022-10-30T16:00:57.840Z,99289.97
2022-10-30T16:03:27.216Z,99290.09
2022-10-30T16:06:09.096Z,99293.94
2022-10-30T16:08:48.432Z,99295.66
2022-10-30T16:11:17.666Z,99297.38
2022-10-30T16:13:46.191Z,99297.44
2022-10-30T16:16:19.314Z,99304.59
2022-10-30T16:18:48.948Z,99303.06
2022-10-30T16:21:19.891Z,99300.97
2022-10-30T16:24:02.598Z,99304.34
2022-10-30T16:26:37.844Z,99303.06
2022-10-30T16:29:18.574Z,99296.97
2022-10-30T16:31:50.466Z,99296.13
2022-10-30T16:34:26.546Z,99299.66
2022-10-30T16:36:56.730Z,99290.84
2022-10-30T16:39:29.589Z,99288.47
2022-10-30T16:42:00.153Z,99297.59
2022-10-30T16:44:31.009Z,99296.44
2022-10-30T16:47:02.256Z,99298.19
2022-10-30T16:49:34.244Z,99301.72
2022-10-30T16:52:07.702Z,99308.84
2022-10-30T16:54:43.470Z,99309.97
2022-10-30T16:57:18.673Z,99303.72
2022-10-30T16:59:50.997Z,99305.56
2022-10-30T17:02:22.408Z,99309.47
2022-10-30T17:04:57.105Z,99310.03
2022-10-30T17:07:28.645Z,99312.34
2022-10-30T17:10:02.125Z,99318.28
2022-10-30T17:12:33.333Z,99315.25
2022-10-30T17:15:13.598Z,99333.19
2022-10-30T17:17:43.302Z,99328.66
2022-10-30T17:20:15.660Z,99337.88
2022-10-30T17:22:44.646Z,99334.94
2022-10-30T17:25:36.715Z,99339.00
2022-10-30T17:28:05.240Z,99347.34
2022-10-30T17:30:39.860Z,99345.34
2022-10-30T17:33:39.078Z,99354.41
2022-10-30T17:36:09.083Z,99360.75
2022-10-30T17:38:37.576Z,99355.38
2022-10-30T17:41:08.978Z,99369.22
2022-10-30T17:43:50.977Z,99365.03
2022-10-30T17:46:22.216Z,99368.31
2022-10-30T17:48:52.154Z,99365.88
2022-10-30T17:51:21.465Z,99369.50
2022-10-30T17:53:54.220Z,99372.00
2022-10-30T17:56:28.126Z,99367.66
2022-10-30T17:58:58.306Z,99376.78
2022-10-30T18:01:28.665Z,99387.16
2022-10-30T18:03:57.732Z,99390.28
2022-10-30T18:06:28.444Z,99387.94
2022-10-30T18:08:59.148Z,99392.31
2022-10-30T18:11:30.137Z,99402.16
2022-10-30T18:14:02.119Z,99414.66
2022-10-30T18:16:30.619Z,99413.47
2022-10-30T18:18:59.467Z,99415.94
2022-10-30T18:21:28.894Z,99420.75
2022-10-30T18:23:57.463Z,99426.22
2022-10-30T18:26:28.021Z,99431.56
2022-10-30T18:28:58.136Z,99437.44
2022-10-30T18:31:26.640Z,99435.75
2022-10-30T18:33:57.675Z,99437.41
2022-10-30T18:36:29.470Z,99438.47
2022-10-30T18:38:58.507Z,99433.97
2022-10-30T18:41:32.742Z,99436.13
2022-10-30T18:44:04.483Z,99444.84
2022-10-30T18:46:34.673Z,99438.22
2022-10-30T18:49:02.993Z,99437.09
2022-10-30T18:51:31.592Z,99448.09
2022-10-30T18:54:00.247Z,99442.56
2022-10-30T18:56:29.897Z,99445.44
2022-10-30T18:59:01.980Z,99436.78
2022-10-30T19:01:33.670Z,99443.59
2022-10-30T19:04:04.460Z,99434.81
2022-10-30T19:06:34.811Z,99438.16
2022-10-30T19:09:03.694Z,99441.28
2022-10-30T19:11:32.295Z,99451.66
2022-10-30T19:14:00.975Z,99449.88
2022-10-30T19:16:31.156Z,99453.09
2022-10-30T19:19:01.760Z,99453.31
2022-10-30T19:21:33.555Z,99459.31
2022-10-30T19:24:03.814Z,99461.84
2022-10-30T19:26:32.961Z,99466.50
2022-10-30T19:29:02.413Z,99469.78
2022-10-30T19:31:30.830Z,99462.03
2022-10-30T19:34:00.971Z,99476.31
2022-10-30T19:36:34.148Z,99479.97
2022-10-30T19:39:08.637Z,99473.91
2022-10-30T19:41:37.652Z,99475.84
2022-10-30T19:44:06.578Z,99482.78
2022-10-30T19:46:35.235Z,99480.81
2022-10-30T19:49:16.548Z,99470.53
2022-10-30T19:51:45.339Z,99473.78
2022-10-30T19:54:14.125Z,99470.59
2022-10-30T19:56:44.461Z,99470.03
2022-10-30T19:59:15.093Z,99467.09
2022-10-30T20:01:44.996Z,99479.56
2022-10-30T20:04:15.439Z,99472.25
2022-10-30T20:06:43.897Z,99483.88
2022-10-30T20:09:13.346Z,99474.50
2022-10-30T20:11:42.553Z,99483.50
2022-10-30T20:14:12.799Z,99474.78
2022-10-30T20:16:41.247Z,99484.09
2022-10-30T20:19:27.986Z,99479.78
2022-10-30T20:21:56.581Z,99488.38
2022-10-30T20:24:25.360Z,99495.59
2022-10-30T20:26:58.640Z,99493.56
2022-10-30T20:29:31.506Z,99501.66
2022-10-30T20:32:01.384Z,99508.50
2022-10-30T20:34:33.622Z,99500.34
2022-10-30T20:37:04.372Z,99518.13
2022-10-30T20:39:32.874Z,99519.28
2022-10-30T20:42:01.674Z,99524.97
2022-10-30T20:44:34.207Z,99524.00
2022-10-30T20:47:02.948Z,99522.44
2022-10-30T20:49:41.765Z,99531.38
2022-10-30T20:52:10.630Z,99532.88
2022-10-30T20:54:41.090Z,99546.38
2022-10-30T20:57:10.132Z,99540.47
2022-10-30T20:59:38.789Z,99531.50
2022-10-30T21:02:13.894Z,99544.00
2022-10-30T21:04:44.226Z,99535.94
2022-10-30T21:07:12.505Z,99544.78
2022-10-30T21:09:41.324Z,99540.91
2022-10-30T21:12:09.844Z,99552.88
2022-10-30T21:14:38.318Z,99561.47
2022-10-30T21:17:07.748Z,99557.75
2022-10-30T21:19:35.836Z,99552.41
2022-10-30T21:22:05.850Z,99563.81
2022-10-30T21:24:35.081Z,99546.78
2022-10-30T21:27:03.491Z,99552.19
2022-10-30T21:29:34.312Z,99559.38
2022-10-30T21:32:03.514Z,99558.00
2022-10-30T21:34:31.866Z,99554.06
2022-10-30T21:37:00.432Z,99558.00
2022-10-30T21:39:30.252Z,99556.53
2022-10-30T21:41:59.649Z,99550.69
2022-10-30T21:44:28.320Z,99553.34
2022-10-30T21:46:56.747Z,99552.06
2022-10-30T21:49:25.748Z,99549.84
2022-10-30T21:51:54.216Z,99549.63
2022-10-30T21:54:23.530Z,99546.63
2022-10-30T21:56:53.553Z,99545.69
2022-10-30T21:59:25.154Z,99543.13
2022-10-30T22:01:54.529Z,99541.00
2022-10-30T22:04:23.852Z,99548.78
2022-10-30T22:06:52.520Z,99549.06
2022-10-30T22:09:20.942Z,99546.88
2022-10-30T22:11:49.451Z,99551.31
2022-10-30T22:14:20.887Z,99554.09
2022-10-30T22:16:51.992Z,99560.69
2022-10-30T22:19:22.017Z,99563.44
2022-10-30T22:21:51.659Z,99560.91
2022-10-30T22:24:19.986Z,99558.97
2022-10-30T22:26:49.266Z,99560.56
2022-10-30T22:29:17.990Z,99553.00
2022-10-30T22:31:47.650Z,99558.28
2022-10-30T22:34:16.075Z,99552.53
2022-10-30T22:36:44.328Z,99558.06
2022-10-30T22:39:14.600Z,99553.59
2022-10-30T22:41:43.553Z,99552.66
2022-10-30T22:44:14.106Z,99561.31
2022-10-30T22:46:42.877Z,99554.47
2022-10-30T22:49:12.882Z,99552.47
2022-10-30T22:51:44.841Z,99548.22
2022-10-30T22:54:22.330Z,99553.22
2022-10-30T22:56:50.846Z,99563.13
2022-10-30T22:59:23.663Z,99564.09
2022-10-30T23:01:52.214Z,99557.81
2022-10-30T23:04:23.385Z,99561.34
2022-10-30T23:06:52.266Z,99561.13
2022-10-30T23:09:22.447Z,99559.53
2022-10-30T23:11:50.962Z,99567.63
2022-10-30T23:14:19.835Z,99570.16
2022-10-30T23:16:50.944Z,99567.59
2022-10-30T23:19:19.591Z,99572.41
2022-10-30T23:21:49.606Z,99570.66
2022-10-30T23:24:18.081Z,99570.16
2022-10-30T23:26:46.239Z,99579.66
2022-10-30T23:29:14.538Z,99577.72
2022-10-30T23:31:44.134Z,99588.03
2022-10-30T23:34:14.576Z,99589.22
2022-10-30T23:36:44.085Z,99594.81
2022-10-30T23:39:17.714Z,99581.53
2022-10-30T23:41:46.416Z,99569.06
2022-10-30T23:44:16.900Z,99582.13
2022-10-30T23:46:45.433Z,99577.72
2022-10-30T23:49:14.170Z,99578.09
2022-10-30T23:51:42.346Z,99579.97
2022-10-30T23:54:10.786Z,99573.53
2022-10-30T23:56:41.899Z,99572.34
2022-10-30T23:59:13.362Z,99580.03
